Time;durP1;ratioP1;P1;durP2;ratioP2;P2;SDS_P1;SDS_P2;PMS_P1;PMS_P2;Temp;Humidity;BMP_temperature;BMP_pressure;BME280_temperature;BME280_humidity;BME280_pressure;Samples;Min_cycle;Max_cycle;Signal;HPM_P1;HPM_P2
2024/01/25 00:02:17;;;;;;;;;;;;;;;;;;5092677;28;20039;-66
2024/01/25 00:04:43;;;;;;;;;;;;;;;;;;5094252;28;20361;-66
2024/01/25 00:07:09;;;;;;;;;;;;;;;;;;5094245;28;19924;-66
2024/01/25 00:09:35;;;;;;;;;;;;;;;;;;5090679;28;19935;-66
2024/01/25 00:12:01;;;;;;;;;;;;;;;;;;5094656;28;19924;-67
2024/01/25 00:14:27;;;;;;;;;;;;;;;;;;5094309;28;19924;-65
2024/01/25 00:16:53;;;;;;;;;;;;;;;;;;5084101;28;19930;-66
2024/01/25 00:19:19;;;;;;;;;;;;;;;;;;5083152;28;19920;-66
2024/01/25 00:21:45;;;;;;;;;;;;;;;;;;5090274;28;19947;-66
2024/01/25 00:24:11;;;;;;;;;;;;;;;;;;5093441;28;19920;-66
2024/01/25 00:26:37;;;;;;;;;;;;;;;;;;5086407;28;19999;-66
2024/01/25 00:29:03;;;;;;;;;;;;;;;;;;5093096;28;19928;-66
2024/01/25 00:31:29;;;;;;;;;;;;;;;;;;5092450;28;20014;-67
2024/01/25 00:33:55;;;;;;;;;;;;;;;;;;5094179;28;19974;-66
2024/01/25 00:36:21;;;;;;;;;;;;;;;;;;5093488;28;20365;-65
2024/01/25 00:38:47;;;;;;;;;;;;;;;;;;5092201;28;19928;-65
2024/01/25 00:41:13;;;;;;;;;;;;;;;;;;5090129;28;19980;-66
2024/01/25 00:43:39;;;;;;;;;;;;;;;;;;5087581;28;19924;-66
2024/01/25 00:46:05;;;;;;;;;;;;;;;;;;5083065;28;20525;-66
2024/01/25 00:48:31;;;;;;;;;;;;;;;;;;5092603;28;19984;-67
2024/01/25 00:50:57;;;;;;;;;;;;;;;;;;5087774;28;20031;-66
2024/01/25 00:53:22;;;;;;;;;;;;;;;;;;5091451;28;19924;-66
2024/01/25 00:55:48;;;;;;;;;;;;;;;;;;5088353;28;20347;-67
2024/01/25 00:58:14;;;;;;;;;;;;;;;;;;5089197;28;19950;-66
2024/01/25 01:00:40;;;;;;;;;;;;;;;;;;5091824;28;19924;-66
2024/01/25 01:03:07;;;;;;;;;;;;;;;;;;5089671;28;19920;-66
2024/01/25 01:05:33;;;;;;;;;;;;;;;;;;5090633;28;19936;-66
2024/01/25 01:07:59;;;;;;;;;;;;;;;;;;5092108;28;19924;-67
2024/01/25 01:10:25;;;;;;;;;;;;;;;;;;5093730;28;19924;-67
2024/01/25 01:12:53;;;;;;;;;;;;;;;;;;5089768;28;19921;-67
2024/01/25 01:15:19;;;;;;;;;;;;;;;;;;5091043;28;20259;-67
2024/01/25 01:17:45;;;;;;;;;;;;;;;;;;5092257;28;19931;-67
2024/01/25 01:20:11;;;;;;;;;;;;;;;;;;5092715;28;20015;-67
2024/01/25 01:22:37;;;;;;;;;;;;;;;;;;5091497;28;19920;-67
2024/01/25 01:25:02;;;;;;;;;;;;;;;;;;5093083;28;19967;-65
2024/01/25 01:27:28;;;;;;;;;;;;;;;;;;5086484;28;19935;-66
2024/01/25 01:29:54;;;;;;;;;;;;;;;;;;5089459;28;19930;-66
2024/01/25 01:32:20;;;;;;;;;;;;;;;;;;5088248;28;20023;-66
2024/01/25 01:34:46;;;;;;;;;;;;;;;;;;5087298;28;20010;-66
2024/01/25 01:37:12;;;;;;;;;;;;;;;;;;5090788;28;20010;-66
2024/01/25 01:39:38;;;;;;;;;;;;;;;;;;5087128;28;20011;-66
2024/01/25 01:42:04;;;;;;;;;;;;;;;;;;5088284;28;20285;-66
2024/01/25 01:44:30;;;;;;;;;;;;;;;;;;5092741;28;20354;-67
2024/01/25 01:46:56;;;;;;;;;;;;;;;;;;5085642;28;19928;-67
2024/01/25 01:49:22;;;;;;;;;;;;;;;;;;5088512;28;21824;-67
2024/01/25 01:51:48;;;;;;;;;;;;;;;;;;5090370;28;19963;-67
2024/01/25 01:54:13;;;;;;;;;;;;;;;;;;5084928;28;19920;-67
2024/01/25 01:56:39;;;;;;;;;;;;;;;;;;5089963;28;20362;-66
2024/01/25 01:59:05;;;;;;;;;;;;;;;;;;5088529;28;19924;-66
2024/01/25 02:01:32;;;;;;;;;;;;;;;;;;5085163;28;19936;-66
2024/01/25 02:03:58;;;;;;;;;;;;;;;;;;5086630;28;20005;-66
2024/01/25 02:06:23;;;;;;;;;;;;;;;;;;5083757;28;19931;-66
2024/01/25 02:08:58;;;;;;;;;;;;;;;;;;5086359;28;19946;-66
2024/01/25 02:11:24;;;;;;;;;;;;;;;;;;5082529;28;19920;-66
2024/01/25 02:13:50;;;;;;;;;;;;;;;;;;5083881;28;20716;-66
2024/01/25 02:16:17;;;;;;;;;;;;;;;;;;5082413;28;19931;-66
2024/01/25 02:18:43;;;;;;;;;;;;;;;;;;5089294;28;20016;-65
2024/01/25 02:21:09;;;;;;;;;;;;;;;;;;5083361;28;20003;-66
2024/01/25 02:23:35;;;;;;;;;;;;;;;;;;5090793;28;19924;-65
2024/01/25 02:26:01;;;;;;;;;;;;;;;;;;5086278;28;19920;-65
2024/01/25 02:28:27;;;;;;;;;;;;;;;;;;5086859;28;19931;-66
2024/01/25 02:30:52;;;;;;;;;;;;;;;;;;5083137;28;20319;-66
2024/01/25 02:33:18;;;;;;;;;;;;;;;;;;5089061;28;20350;-67
2024/01/25 02:35:44;;;;;;;;;;;;;;;;;;5081272;28;19928;-67
2024/01/25 02:38:10;;;;;;;;;;;;;;;;;;5091197;28;19920;-67
2024/01/25 02:40:36;;;;;;;;;;;;;;;;;;5079396;28;19931;-67
2024/01/25 02:43:02;;;;;;;;;;;;;;;;;;5080499;28;19931;-66
2024/01/25 02:45:28;;;;;;;;;;;;;;;;;;5086625;28;19927;-66
2024/01/25 02:47:54;;;;;;;;;;;;;;;;;;5086778;28;19924;-66
2024/01/25 02:50:20;;;;;;;;;;;;;;;;;;5083249;28;20073;-67
2024/01/25 02:52:46;;;;;;;;;;;;;;;;;;5084490;28;20022;-66
2024/01/25 02:55:11;;;;;;;;;;;;;;;;;;5087026;28;20366;-65
2024/01/25 02:57:37;;;;;;;;;;;;;;;;;;5081957;28;19924;-66
2024/01/25 03:00:04;;;;;;;;;;;;;;;;;;5086823;28;19932;-66
2024/01/25 03:02:31;;;;;;;;;;;;;;;;;;5088313;28;20005;-66
2024/01/25 03:04:57;;;;;;;;;;;;;;;;;;5089700;28;19935;-66
2024/01/25 03:07:23;;;;;;;;;;;;;;;;;;5086497;28;19932;-66
2024/01/25 03:09:49;;;;;;;;;;;;;;;;;;5089480;28;19942;-67
2024/01/25 03:12:14;;;;;;;;;;;;;;;;;;5088897;28;19920;-65
2024/01/25 03:14:40;;;;;;;;;;;;;;;;;;5082124;28;20327;-65
2024/01/25 03:17:06;;;;;;;;;;;;;;;;;;5076547;28;19928;-65
2024/01/25 03:19:32;;;;;;;;;;;;;;;;;;5081883;28;19928;-65
2024/01/25 03:21:58;;;;;;;;;;;;;;;;;;5090869;28;19921;-66
2024/01/25 03:24:24;;;;;;;;;;;;;;;;;;5086979;28;20450;-66
2024/01/25 03:26:50;;;;;;;;;;;;;;;;;;5090717;28;20522;-67
2024/01/25 03:29:16;;;;;;;;;;;;;;;;;;5083960;28;19978;-67
2024/01/25 03:31:42;;;;;;;;;;;;;;;;;;5088018;28;19966;-66
2024/01/25 03:34:08;;;;;;;;;;;;;;;;;;5084029;28;19923;-67
2024/01/25 03:36:35;;;;;;;;;;;;;;;;;;5090660;28;19973;-66
2024/01/25 03:39:02;;;;;;;;;;;;;;;;;;5090917;28;20428;-66
2024/01/25 03:41:29;;;;;;;;;;;;;;;;;;5088470;28;19920;-66
2024/01/25 03:43:54;;;;;;;;;;;;;;;;;;5090946;28;20288;-66
2024/01/25 03:46:20;;;;;;;;;;;;;;;;;;5079998;28;19921;-66
2024/01/25 03:48:46;;;;;;;;;;;;;;;;;;5088307;28;19924;-66
2024/01/25 03:51:12;;;;;;;;;;;;;;;;;;5087196;28;20129;-66
2024/01/25 03:53:39;;;;;;;;;;;;;;;;;;5081415;28;19924;-66
2024/01/25 03:56:05;;;;;;;;;;;;;;;;;;5082896;28;19928;-66
2024/01/25 03:58:31;;;;;;;;;;;;;;;;;;5083073;28;19920;-65
2024/01/25 04:00:58;;;;;;;;;;;;;;;;;;5079321;28;19924;-66
2024/01/25 04:03:24;;;;;;;;;;;;;;;;;;5083265;28;19920;-65
2024/01/25 04:05:50;;;;;;;;;;;;;;;;;;5079650;28;19924;-65
2024/01/25 04:08:16;;;;;;;;;;;;;;;;;;5087272;28;20678;-65
2024/01/25 04:10:41;;;;;;;;;;;;;;;;;;5086716;28;19926;-66
2024/01/25 04:13:07;;;;;;;;;;;;;;;;;;5083559;28;20401;-67
2024/01/25 04:15:33;;;;;;;;;;;;;;;;;;5082592;28;19929;-67
2024/01/25 04:17:59;;;;;;;;;;;;;;;;;;5083929;28;19934;-66
2024/01/25 04:20:25;;;;;;;;;;;;;;;;;;5085129;28;19931;-67
2024/01/25 04:22:51;;;;;;;;;;;;;;;;;;5087037;28;19920;-67
2024/01/25 04:25:17;;;;;;;;;;;;;;;;;;5083224;28;20416;-67
2024/01/25 04:27:43;;;;;;;;;;;;;;;;;;5089346;28;19932;-67
2024/01/25 04:30:10;;;;;;;;;;;;;;;;;;5087284;28;20359;-67
2024/01/25 04:32:36;;;;;;;;;;;;;;;;;;5089202;28;19943;-67
2024/01/25 04:35:02;;;;;;;;;;;;;;;;;;5088292;28;20550;-66
2024/01/25 04:37:27;;;;;;;;;;;;;;;;;;5091339;28;20006;-66
2024/01/25 04:39:53;;;;;;;;;;;;;;;;;;5085297;28;19927;-66
2024/01/25 04:42:19;;;;;;;;;;;;;;;;;;5090555;28;19924;-66
2024/01/25 04:44:45;;;;;;;;;;;;;;;;;;5090743;28;20396;-66
2024/01/25 04:47:11;;;;;;;;;;;;;;;;;;5091517;28;20460;-66
2024/01/25 04:49:37;;;;;;;;;;;;;;;;;;5090846;28;19927;-66
2024/01/25 04:52:03;;;;;;;;;;;;;;;;;;5089872;28;19932;-67
2024/01/25 04:54:29;;;;;;;;;;;;;;;;;;5089162;28;19924;-66
2024/01/25 04:56:55;;;;;;;;;;;;;;;;;;5086582;28;19920;-66
2024/01/25 04:59:21;;;;;;;;;;;;;;;;;;5089836;28;19925;-67
2024/01/25 05:01:47;;;;;;;;;;;;;;;;;;5089945;28;19924;-67
2024/01/25 05:04:13;;;;;;;;;;;;;;;;;;5092171;28;19928;-67
2024/01/25 05:06:38;;;;;;;;;;;;;;;;;;5087162;28;19924;-67
2024/01/25 05:09:04;;;;;;;;;;;;;;;;;;5091655;28;20019;-67
2024/01/25 05:11:30;;;;;;;;;;;;;;;;;;5081599;28;19924;-67
2024/01/25 05:13:56;;;;;;;;;;;;;;;;;;5087869;28;19924;-67
2024/01/25 05:16:24;;;;;;;;;;;;;;;;;;5090366;28;19920;-67
2024/01/25 05:18:50;;;;;;;;;;;;;;;;;;5090994;28;20442;-65
2024/01/25 05:21:16;;;;;;;;;;;;;;;;;;5089407;28;19924;-66
2024/01/25 05:23:42;;;;;;;;;;;;;;;;;;5090210;28;19920;-66
2024/01/25 05:26:07;;;;;;;;;;;;;;;;;;5088393;28;19924;-66
2024/01/25 05:28:33;;;;;;;;;;;;;;;;;;5082164;28;19925;-67
2024/01/25 05:30:59;;;;;;;;;;;;;;;;;;5080920;28;19928;-67
2024/01/25 05:33:25;;;;;;;;;;;;;;;;;;5083296;28;20320;-66
2024/01/25 05:35:51;;;;;;;;;;;;;;;;;;5087587;28;20392;-66
2024/01/25 05:38:17;;;;;;;;;;;;;;;;;;5090996;28;19931;-65
2024/01/25 05:40:43;;;;;;;;;;;;;;;;;;5091347;28;20369;-65
2024/01/25 05:43:09;;;;;;;;;;;;;;;;;;5083292;22;19929;-68
2024/01/25 05:45:35;;;;;;;;;;;;;;;;;;5068895;28;19929;-69
2024/01/25 05:48:01;;;;;;;;;;;;;;;;;;5066390;28;19974;-70
2024/01/25 05:50:26;;;;;;;;;;;;;;;;;;5068978;28;20316;-69
2024/01/25 05:52:52;;;;;;;;;;;;;;;;;;5059757;28;19929;-69
2024/01/25 05:55:18;;;;;;;;;;;;;;;;;;5065722;28;19924;-69
2024/01/25 05:57:44;;;;;;;;;;;;;;;;;;5068076;28;19950;-69
2024/01/25 06:00:12;;;;;;;;;;;;;;;;;;5067360;28;20013;-68
2024/01/25 06:02:38;;;;;;;;;;;;;;;;;;5067890;28;19921;-69
2024/01/25 06:05:04;;;;;;;;;;;;;;;;;;5069209;28;19929;-69
2024/01/25 06:07:30;;;;;;;;;;;;;;;;;;5068004;28;19924;-69
2024/01/25 06:09:56;;;;;;;;;;;;;;;;;;5063897;28;19933;-69
2024/01/25 06:12:22;;;;;;;;;;;;;;;;;;5067513;28;19929;-68
2024/01/25 06:14:48;;;;;;;;;;;;;;;;;;5065860;28;20309;-67
2024/01/25 06:17:14;;;;;;;;;;;;;;;;;;5064485;28;19967;-68
2024/01/25 06:19:40;;;;;;;;;;;;;;;;;;5060484;28;20366;-68
2024/01/25 06:22:06;;;;;;;;;;;;;;;;;;5068822;28;19966;-67
2024/01/25 06:24:32;;;;;;;;;;;;;;;;;;5072327;28;19921;-68
2024/01/25 06:26:58;;;;;;;;;;;;;;;;;;5069986;28;19925;-68
2024/01/25 06:29:24;;;;;;;;;;;;;;;;;;5072724;28;19920;-68
2024/01/25 06:31:50;;;;;;;;;;;;;;;;;;5068273;28;19960;-68
2024/01/25 06:34:16;;;;;;;;;;;;;;;;;;5065108;28;20741;-69
2024/01/25 06:36:41;;;;;;;;;;;;;;;;;;5069643;28;20591;-69
2024/01/25 06:39:08;;;;;;;;;;;;;;;;;;5073916;28;19935;-69
2024/01/25 06:41:34;;;;;;;;;;;;;;;;;;5073132;28;19970;-69
2024/01/25 06:44:00;;;;;;;;;;;;;;;;;;5072697;28;19940;-69
2024/01/25 06:46:26;;;;;;;;;;;;;;;;;;5066984;28;19932;-69
2024/01/25 06:48:52;;;;;;;;;;;;;;;;;;5073401;28;20104;-69
2024/01/25 06:51:20;;;;;;;;;;;;;;;;;;5059253;28;21475;-68
2024/01/25 06:53:46;;;;;;;;;;;;;;;;;;5062791;28;19928;-68
2024/01/25 06:56:12;;;;;;;;;;;;;;;;;;5069121;28;19920;-68
2024/01/25 06:58:38;;;;;;;;;;;;;;;;;;5067849;28;19927;-69
2024/01/25 07:01:07;;;;;;;;;;;;;;;;;;5060642;28;19920;-67
2024/01/25 07:03:33;;;;;;;;;;;;;;;;;;5067897;28;19934;-68
2024/01/25 07:05:59;;;;;;;;;;;;;;;;;;5070694;28;20025;-69
2024/01/25 07:08:25;;;;;;;;;;;;;;;;;;5066319;28;19929;-68
2024/01/25 07:10:51;;;;;;;;;;;;;;;;;;5068705;28;21875;-68
2024/01/25 07:13:17;;;;;;;;;;;;;;;;;;5067155;28;19935;-69
2024/01/25 07:15:43;;;;;;;;;;;;;;;;;;5065779;28;20250;-68
2024/01/25 07:18:09;;;;;;;;;;;;;;;;;;5059249;28;19921;-69
2024/01/25 07:20:35;;;;;;;;;;;;;;;;;;5069463;28;19925;-68
2024/01/25 07:23:01;;;;;;;;;;;;;;;;;;5064519;28;19921;-70
2024/01/25 07:25:28;;;;;;;;;;;;;;;;;;5071152;28;19920;-69
2024/01/25 07:27:54;;;;;;;;;;;;;;;;;;5070227;28;19988;-69
2024/01/25 07:30:20;;;;;;;;;;;;;;;;;;5067668;28;19964;-69
2024/01/25 07:32:46;;;;;;;;;;;;;;;;;;5065956;28;19974;-69
2024/01/25 07:35:12;;;;;;;;;;;;;;;;;;5073021;28;20342;-69
2024/01/25 07:37:38;;;;;;;;;;;;;;;;;;5067867;28;19931;-68
2024/01/25 07:40:04;;;;;;;;;;;;;;;;;;5072186;28;20588;-68
2024/01/25 07:42:30;;;;;;;;;;;;;;;;;;5067922;28;19931;-68
2024/01/25 07:44:55;;;;;;;;;;;;;;;;;;5066335;28;19925;-68
2024/01/25 07:47:21;;;;;;;;;;;;;;;;;;5066871;28;19936;-68
2024/01/25 07:49:47;;;;;;;;;;;;;;;;;;5066355;28;19921;-68
2024/01/25 07:52:13;;;;;;;;;;;;;;;;;;5064135;28;20280;-68
2024/01/25 07:54:39;;;;;;;;;;;;;;;;;;5063379;28;20597;-68
2024/01/25 07:57:05;;;;;;;;;;;;;;;;;;5069434;28;20019;-69
2024/01/25 07:59:31;;;;;;;;;;;;;;;;;;5066356;28;19924;-69
2024/01/25 08:01:57;;;;;;;;;;;;;;;;;;5065475;28;19928;-69
2024/01/25 08:04:23;;;;;;;;;;;;;;;;;;5067945;28;19928;-69
2024/01/25 08:06:49;;;;;;;;;;;;;;;;;;5071703;28;19927;-68
2024/01/25 08:09:15;;;;;;;;;;;;;;;;;;5067733;28;19930;-69
2024/01/25 08:11:41;;;;;;;;;;;;;;;;;;5068346;28;20164;-68
2024/01/25 08:14:06;;;;;;;;;;;;;;;;;;5068379;28;19935;-69
2024/01/25 08:16:34;;;;;;;;;;;;;;;;;;5063071;28;19921;-68
2024/01/25 08:19:00;;;;;;;;;;;;;;;;;;5065160;28;19928;-68
2024/01/25 08:21:26;;;;;;;;;;;;;;;;;;5072557;28;20412;-69
2024/01/25 08:23:52;;;;;;;;;;;;;;;;;;5074784;28;19943;-69
2024/01/25 08:26:18;;;;;;;;;;;;;;;;;;5070248;28;19931;-69
2024/01/25 08:28:44;;;;;;;;;;;;;;;;;;5072976;28;19928;-68
2024/01/25 08:31:10;;;;;;;;;;;;;;;;;;5071119;28;19921;-68
2024/01/25 08:33:36;;;;;;;;;;;;;;;;;;5067684;28;19962;-68
2024/01/25 08:36:02;;;;;;;;;;;;;;;;;;5068198;28;19924;-68
2024/01/25 08:38:28;;;;;;;;;;;;;;;;;;5070545;28;19952;-68
2024/01/25 08:40:54;;;;;;;;;;;;;;;;;;5068868;28;20335;-68
2024/01/25 08:43:20;;;;;;;;;;;;;;;;;;5072414;28;19959;-68
2024/01/25 08:45:46;;;;;;;;;;;;;;;;;;5067884;28;20015;-68
2024/01/25 08:48:13;;;;;;;;;;;;;;;;;;5063141;28;19960;-68
2024/01/25 08:50:39;;;;;;;;;;;;;;;;;;5070778;28;19946;-68
2024/01/25 08:53:05;;;;;;;;;;;;;;;;;;5067657;28;19931;-68
2024/01/25 08:55:31;;;;;;;;;;;;;;;;;;5066921;28;19960;-68
2024/01/25 08:57:56;;;;;;;;;;;;;;;;;;5077404;28;19970;-68
2024/01/25 09:00:22;;;;;;;;;;;;;;;;;;5076916;28;19968;-68
2024/01/25 09:02:48;;;;;;;;;;;;;;;;;;5067861;28;20011;-68
2024/01/25 09:05:14;;;;;;;;;;;;;;;;;;5072691;28;20454;-70
2024/01/25 09:07:41;;;;;;;;;;;;;;;;;;5077880;28;20457;-69
2024/01/25 09:10:07;;;;;;;;;;;;;;;;;;5070505;28;20530;-69
2024/01/25 09:12:33;;;;;;;;;;;;;;;;;;5070608;28;19921;-70
2024/01/25 09:14:59;;;;;;;;;;;;;;;;;;5066531;28;19940;-69
2024/01/25 09:17:24;;;;;;;;;;;;;;;;;;5071928;28;19970;-69
2024/01/25 09:19:51;;;;;;;;;;;;;;;;;;5069371;28;20417;-69
2024/01/25 09:22:19;;;;;;;;;;;;;;;;;;5072629;28;19931;-69
2024/01/25 09:24:44;;;;;;;;;;;;;;;;;;5077926;28;19927;-69
2024/01/25 09:27:10;;;;;;;;;;;;;;;;;;5064404;28;19920;-70
2024/01/25 09:29:38;;;;;;;;;;;;;;;;;;5069362;28;21199;-69
2024/01/25 09:32:04;;;;;;;;;;;;;;;;;;5071151;28;20365;-70
2024/01/25 09:34:30;;;;;;;;;;;;;;;;;;5062027;28;20411;-68
2024/01/25 09:36:56;;;;;;;;;;;;;;;;;;5086072;28;19970;-68
2024/01/25 09:39:21;;;;;;;;;;;;;;;;;;5068743;28;20007;-69
2024/01/25 09:41:47;;;;;;;;;;;;;;;;;;5059930;28;19982;-69
2024/01/25 09:44:13;;;;;;;;;;;;;;;;;;5060468;28;20477;-69
2024/01/25 09:46:40;;;;;;;;;;;;;;;;;;5062369;28;20014;-69
2024/01/25 09:49:07;;;;;;;;;;;;;;;;;;5070560;28;19924;-69
2024/01/25 09:51:33;;;;;;;;;;;;;;;;;;5071708;28;19955;-70
2024/01/25 09:54:00;;;;;;;;;;;;;;;;;;5083423;28;20017;-70
2024/01/25 09:56:26;;;;;;;;;;;;;;;;;;5067204;28;19925;-70
2024/01/25 09:58:51;;;;;;;;;;;;;;;;;;5078719;28;19986;-70
2024/01/25 10:01:18;;;;;;;;;;;;;;;;;;5063251;28;19947;-70
2024/01/25 10:03:43;;;;;;;;;;;;;;;;;;5070922;28;20669;-69
2024/01/25 10:06:09;;;;;;;;;;;;;;;;;;5069041;28;19924;-68
2024/01/25 10:08:35;;;;;;;;;;;;;;;;;;5074305;28;20062;-69
2024/01/25 10:11:02;;;;;;;;;;;;;;;;;;5067846;28;19928;-71
2024/01/25 10:13:28;;;;;;;;;;;;;;;;;;5060141;28;20608;-70
2024/01/25 10:15:54;;;;;;;;;;;;;;;;;;5071165;28;19924;-68
2024/01/25 10:18:20;;;;;;;;;;;;;;;;;;5077026;28;19920;-69
2024/01/25 10:20:46;;;;;;;;;;;;;;;;;;5062485;28;20011;-68
2024/01/25 10:23:13;;;;;;;;;;;;;;;;;;5067747;28;19974;-69
2024/01/25 10:25:39;;;;;;;;;;;;;;;;;;5069364;28;19924;-69
2024/01/25 10:28:05;;;;;;;;;;;;;;;;;;5076862;28;19928;-68
2024/01/25 10:30:31;;;;;;;;;;;;;;;;;;5056542;28;19925;-68
2024/01/25 10:32:57;;;;;;;;;;;;;;;;;;5071727;28;19921;-69
2024/01/25 10:35:23;;;;;;;;;;;;;;;;;;5067741;28;21391;-69
2024/01/25 10:37:49;;;;;;;;;;;;;;;;;;5065136;28;19933;-69
2024/01/25 10:40:15;;;;;;;;;;;;;;;;;;5065323;28;19929;-69
2024/01/25 10:42:40;;;;;;;;;;;;;;;;;;5070958;28;20073;-69
2024/01/25 10:45:06;;;;;;;;;;;;;;;;;;5063072;28;19924;-69
2024/01/25 10:47:35;;;;;;;;;;;;;;;;;;5072947;28;19920;-69
2024/01/25 10:50:01;;;;;;;;;;;;;;;;;;5077247;28;19931;-69
2024/01/25 10:52:26;;;;;;;;;;;;;;;;;;5082989;28;19920;-68
2024/01/25 10:54:52;;;;;;;;;;;;;;;;;;5075582;28;19936;-69
2024/01/25 10:57:18;;;;;;;;;;;;;;;;;;5068426;28;19924;-69
2024/01/25 10:59:44;;;;;;;;;;;;;;;;;;5070395;28;19925;-69
2024/01/25 11:02:10;;;;;;;;;;;;;;;;;;5068584;28;19921;-69
2024/01/25 11:04:36;;;;;;;;;;;;;;;;;;5076622;28;20300;-70
2024/01/25 11:07:02;;;;;;;;;;;;;;;;;;5066940;28;19928;-69
2024/01/25 11:09:28;;;;;;;;;;;;;;;;;;5073330;28;20421;-69
2024/01/25 11:11:54;;;;;;;;;;;;;;;;;;5065411;28;19921;-68
2024/01/25 11:14:20;;;;;;;;;;;;;;;;;;5068155;28;20019;-69
2024/01/25 11:16:47;;;;;;;;;;;;;;;;;;5071169;28;19932;-68
2024/01/25 11:19:12;;;;;;;;;;;;;;;;;;5081842;28;19928;-69
2024/01/25 11:21:39;;;;;;;;;;;;;;;;;;5084468;28;19928;-69
2024/01/25 11:24:05;;;;;;;;;;;;;;;;;;5084663;28;19951;-69
2024/01/25 11:26:31;;;;;;;;;;;;;;;;;;5079073;28;19920;-69
2024/01/25 11:28:59;;;;;;;;;;;;;;;;;;5075951;28;20464;-69
2024/01/25 11:31:25;;;;;;;;;;;;;;;;;;5066241;28;19954;-68
2024/01/25 11:33:51;;;;;;;;;;;;;;;;;;5054637;28;19924;-68
2024/01/25 11:36:17;;;;;;;;;;;;;;;;;;5069356;28;19966;-69
2024/01/25 11:38:43;;;;;;;;;;;;;;;;;;5071001;28;19924;-69
2024/01/25 11:41:09;;;;;;;;;;;;;;;;;;5074002;28;20341;-68
2024/01/25 11:43:36;;;;;;;;;;;;;;;;;;5074506;28;19925;-68
2024/01/25 11:46:02;;;;;;;;;;;;;;;;;;5069220;28;20484;-68
2024/01/25 11:48:28;;;;;;;;;;;;;;;;;;5071370;28;19932;-69
2024/01/25 11:50:54;;;;;;;;;;;;;;;;;;5071233;28;19978;-70
2024/01/25 11:53:20;;;;;;;;;;;;;;;;;;5072278;28;19924;-68
2024/01/25 11:55:45;;;;;;;;;;;;;;;;;;5064843;28;19978;-69
2024/01/25 11:58:11;;;;;;;;;;;;;;;;;;5064275;28;20308;-68
2024/01/25 12:00:37;;;;;;;;;;;;;;;;;;5068650;28;19946;-68
2024/01/25 12:03:03;;;;;;;;;;;;;;;;;;5063903;28;19978;-69
2024/01/25 12:05:29;;;;;;;;;;;;;;;;;;5071353;28;19920;-69
2024/01/25 12:07:55;;;;;;;;;;;;;;;;;;5076036;28;19973;-69
2024/01/25 12:10:22;;;;;;;;;;;;;;;;;;5070950;28;20342;-70
2024/01/25 12:12:48;;;;;;;;;;;;;;;;;;5072051;28;19924;-69
2024/01/25 12:15:14;;;;;;;;;;;;;;;;;;5050889;28;19928;-70
2024/01/25 12:17:40;;;;;;;;;;;;;;;;;;5067099;28;19920;-70
2024/01/25 12:20:10;;;;;;;;;;;;;;;;;;5071245;28;19955;-70
2024/01/25 12:22:36;;;;;;;;;;;;;;;;;;5071357;28;19928;-70
2024/01/25 12:25:02;;;;;;;;;;;;;;;;;;5064175;28;20286;-69
2024/01/25 12:27:28;;;;;;;;;;;;;;;;;;5071122;28;19920;-70
2024/01/25 12:29:54;;;;;;;;;;;;;;;;;;5069324;28;20074;-69
2024/01/25 12:32:20;;;;;;;;;;;;;;;;;;5072435;28;19920;-69
2024/01/25 12:34:46;;;;;;;;;;;;;;;;;;5069326;28;20007;-69
2024/01/25 12:37:12;;;;;;;;;;;;;;;;;;5072121;28;20480;-70
2024/01/25 12:39:38;;;;;;;;;;;;;;;;;;5071157;28;19946;-70
2024/01/25 12:42:04;;;;;;;;;;;;;;;;;;5073166;28;19935;-70
2024/01/25 12:44:29;;;;;;;;;;;;;;;;;;5071366;28;19929;-69
2024/01/25 12:46:55;;;;;;;;;;;;;;;;;;5073315;28;20416;-70
2024/01/25 12:49:23;;;;;;;;;;;;;;;;;;5069254;28;19928;-70
2024/01/25 12:51:48;;;;;;;;;;;;;;;;;;5071789;28;19981;-70
2024/01/25 12:54:14;;;;;;;;;;;;;;;;;;5068534;28;19924;-70
2024/01/25 12:56:40;;;;;;;;;;;;;;;;;;5059880;28;20272;-70
2024/01/25 12:59:06;;;;;;;;;;;;;;;;;;5071092;28;19926;-70
2024/01/25 13:01:32;;;;;;;;;;;;;;;;;;5077893;28;20360;-70
2024/01/25 13:03:58;;;;;;;;;;;;;;;;;;5071909;28;19978;-70
2024/01/25 13:06:24;;;;;;;;;;;;;;;;;;5068254;28;19924;-70
2024/01/25 13:08:50;;;;;;;;;;;;;;;;;;5065223;28;19924;-70
2024/01/25 13:11:16;;;;;;;;;;;;;;;;;;5070747;28;19924;-70
2024/01/25 13:13:43;;;;;;;;;;;;;;;;;;5068975;28;19924;-70
2024/01/25 13:16:09;;;;;;;;;;;;;;;;;;5072117;28;19921;-70
2024/01/25 13:18:35;;;;;;;;;;;;;;;;;;5071387;28;19925;-70
2024/01/25 13:21:01;;;;;;;;;;;;;;;;;;5065757;28;19966;-69
2024/01/25 13:23:27;;;;;;;;;;;;;;;;;;5071362;28;19947;-69
2024/01/25 13:25:53;;;;;;;;;;;;;;;;;;5069406;28;19938;-70
2024/01/25 13:28:19;;;;;;;;;;;;;;;;;;5068238;28;19928;-70
2024/01/25 13:30:45;;;;;;;;;;;;;;;;;;5069110;28;19921;-70
2024/01/25 13:33:10;;;;;;;;;;;;;;;;;;5066947;28;19921;-70
2024/01/25 13:35:36;;;;;;;;;;;;;;;;;;5077816;28;19920;-69
2024/01/25 13:38:03;;;;;;;;;;;;;;;;;;5068143;28;20317;-69
2024/01/25 13:40:28;;;;;;;;;;;;;;;;;;5064474;28;20262;-70
2024/01/25 13:42:54;;;;;;;;;;;;;;;;;;5064356;28;20003;-70
2024/01/25 13:45:20;;;;;;;;;;;;;;;;;;5071261;28;20007;-70
2024/01/25 13:47:46;;;;;;;;;;;;;;;;;;5066571;28;20450;-69
2024/01/25 13:50:12;;;;;;;;;;;;;;;;;;5064194;28;19989;-69
2024/01/25 13:52:38;;;;;;;;;;;;;;;;;;5069439;28;19940;-70
2024/01/25 13:55:04;;;;;;;;;;;;;;;;;;5069689;28;19951;-69
2024/01/25 13:57:30;;;;;;;;;;;;;;;;;;5081962;28;20020;-69
2024/01/25 13:59:56;;;;;;;;;;;;;;;;;;5075369;28;19920;-70
2024/01/25 14:02:22;;;;;;;;;;;;;;;;;;5064674;28;19928;-69
2024/01/25 14:04:48;;;;;;;;;;;;;;;;;;5071211;28;20397;-69
2024/01/25 14:07:14;;;;;;;;;;;;;;;;;;5076426;28;19929;-70
2024/01/25 14:09:40;;;;;;;;;;;;;;;;;;5068889;28;19928;-69
2024/01/25 14:12:06;;;;;;;;;;;;;;;;;;5068612;28;19966;-70
2024/01/25 14:14:32;;;;;;;;;;;;;;;;;;5070699;28;19995;-70
2024/01/25 14:16:58;;;;;;;;;;;;;;;;;;5068630;28;19921;-69
2024/01/25 14:19:24;;;;;;;;;;;;;;;;;;5063946;28;19928;-69
2024/01/25 14:21:50;;;;;;;;;;;;;;;;;;5068443;28;19932;-69
2024/01/25 14:24:16;;;;;;;;;;;;;;;;;;5075672;28;19947;-69
2024/01/25 14:26:42;;;;;;;;;;;;;;;;;;5070497;28;19920;-69
2024/01/25 14:29:08;;;;;;;;;;;;;;;;;;5068935;28;19928;-69
2024/01/25 14:31:34;;;;;;;;;;;;;;;;;;5066777;28;19925;-69
2024/01/25 14:34:00;;;;;;;;;;;;;;;;;;5068177;28;19969;-70
2024/01/25 14:36:26;;;;;;;;;;;;;;;;;;5066477;28;19921;-69
2024/01/25 14:38:52;;;;;;;;;;;;;;;;;;5068602;28;19978;-70
2024/01/25 14:41:18;;;;;;;;;;;;;;;;;;5066898;28;20402;-69
2024/01/25 14:43:44;;;;;;;;;;;;;;;;;;5063406;28;19925;-69
2024/01/25 14:46:10;;;;;;;;;;;;;;;;;;5066109;28;19946;-69
2024/01/25 14:48:36;;;;;;;;;;;;;;;;;;5068333;28;19956;-69
2024/01/25 14:51:02;;;;;;;;;;;;;;;;;;5062323;28;20332;-70
2024/01/25 14:53:28;;;;;;;;;;;;;;;;;;5064582;28;19966;-70
2024/01/25 14:55:54;;;;;;;;;;;;;;;;;;5067013;28;19928;-69
2024/01/25 14:58:22;;;;;;;;;;;;;;;;;;5061519;28;19951;-70
2024/01/25 15:00:48;;;;;;;;;;;;;;;;;;5068684;28;20392;-69
2024/01/25 15:03:14;;;;;;;;;;;;;;;;;;5070991;28;19920;-69
2024/01/25 15:05:40;;;;;;;;;;;;;;;;;;5068090;28;19927;-70
2024/01/25 15:08:06;;;;;;;;;;;;;;;;;;5070595;28;20488;-69
2024/01/25 15:10:32;;;;;;;;;;;;;;;;;;5052886;28;19924;-69
2024/01/25 15:12:59;;;;;;;;;;;;;;;;;;5068969;28;19984;-69
2024/01/25 15:15:27;;;;;;;;;;;;;;;;;;5062651;28;19929;-69
2024/01/25 15:17:53;;;;;;;;;;;;;;;;;;5064080;28;20278;-70
2024/01/25 15:20:19;;;;;;;;;;;;;;;;;;5063520;28;19967;-69
2024/01/25 15:22:45;;;;;;;;;;;;;;;;;;5065858;28;19925;-69
2024/01/25 15:25:11;;;;;;;;;;;;;;;;;;5062055;28;19926;-70
2024/01/25 15:27:37;;;;;;;;;;;;;;;;;;5066361;28;19924;-69
2024/01/25 15:30:03;;;;;;;;;;;;;;;;;;5067173;28;19929;-69
2024/01/25 15:32:29;;;;;;;;;;;;;;;;;;5068147;28;20365;-69
2024/01/25 15:34:55;;;;;;;;;;;;;;;;;;5068908;28;20014;-69
2024/01/25 15:37:21;;;;;;;;;;;;;;;;;;5069954;28;19947;-69
2024/01/25 15:39:47;;;;;;;;;;;;;;;;;;5064607;28;19971;-68
2024/01/25 15:42:13;;;;;;;;;;;;;;;;;;5069483;28;19924;-68
2024/01/25 15:44:38;;;;;;;;;;;;;;;;;;5067250;28;19935;-69
2024/01/25 15:47:04;;;;;;;;;;;;;;;;;;5064527;28;19944;-69
2024/01/25 15:49:30;;;;;;;;;;;;;;;;;;5064122;28;19954;-69
2024/01/25 15:51:56;;;;;;;;;;;;;;;;;;5060379;28;19925;-69
2024/01/25 15:54:22;;;;;;;;;;;;;;;;;;5059071;28;19925;-69
2024/01/25 15:56:48;;;;;;;;;;;;;;;;;;5067380;28;19947;-69
2024/01/25 15:59:14;;;;;;;;;;;;;;;;;;5064457;28;20027;-70
2024/01/25 16:01:41;;;;;;;;;;;;;;;;;;5056335;28;20019;-69
2024/01/25 16:04:07;;;;;;;;;;;;;;;;;;5069968;28;19924;-69
2024/01/25 16:06:33;;;;;;;;;;;;;;;;;;5069920;28;19947;-69
2024/01/25 16:08:59;;;;;;;;;;;;;;;;;;5064710;28;19932;-69
2024/01/25 16:11:24;;;;;;;;;;;;;;;;;;5053952;28;19929;-69
2024/01/25 16:13:51;;;;;;;;;;;;;;;;;;5073125;28;19924;-69
2024/01/25 16:16:17;;;;;;;;;;;;;;;;;;5065775;28;19950;-68
2024/01/25 16:18:43;;;;;;;;;;;;;;;;;;5069487;28;19994;-68
2024/01/25 16:21:09;;;;;;;;;;;;;;;;;;5072255;28;20328;-69
2024/01/25 16:23:34;;;;;;;;;;;;;;;;;;5073025;28;19924;-68
2024/01/25 16:26:01;;;;;;;;;;;;;;;;;;5064912;28;19924;-68
2024/01/25 16:28:27;;;;;;;;;;;;;;;;;;5067009;28;19935;-69
2024/01/25 16:30:53;;;;;;;;;;;;;;;;;;5072113;28;19924;-69
2024/01/25 16:33:19;;;;;;;;;;;;;;;;;;5060417;28;19970;-69
2024/01/25 16:35:45;;;;;;;;;;;;;;;;;;5069001;28;19929;-69
2024/01/25 16:38:11;;;;;;;;;;;;;;;;;;5066479;28;19974;-68